Time;durP1;ratioP1;P1;durP2;ratioP2;P2;SDS_P1;SDS_P2;PMS_P1;PMS_P2;Temp;Humidity;BMP_temperature;BMP_pressure;BME280_temperature;BME280_humidity;BME280_pressure;Samples;Min_cycle;Max_cycle;Signal;HPM_P1;HPM_P2
2023/12/05 00:00:24;;;;;;;;;;;;;;;-4.36;80.75;101641.74;106752;1254;124847;-83
2023/12/05 00:03:11;;;;;;;;;;;;;;;-4.36;80.70;101638.84;106728;1254;74384;-83
2023/12/05 00:05:38;;;;;;;;;;;;;;;-4.38;80.53;101640.02;106742;1254;124755;-83
2023/12/05 00:08:04;;;;;;;;;;;;;;;-4.42;80.54;101658.64;106827;1254;72156;-84
2023/12/05 00:10:31;;;;;;;;;;;;;;;-4.39;80.65;101672.83;106867;1258;61282;-83
2023/12/05 00:13:00;;;;;;;;;;;;;;;-4.36;80.66;101649.20;106795;1255;125222;-82
2023/12/05 00:15:26;;;;;;;;;;;;;;;-4.32;80.76;101642.17;106849;1258;74679;-84
2023/12/05 00:17:53;;;;;;;;;;;;;;;-4.28;80.67;101654.71;106760;1254;125134;-83
2023/12/05 00:20:20;;;;;;;;;;;;;;;-4.24;80.61;101660.46;106872;1254;71365;-82
2023/12/05 00:22:49;;;;;;;;;;;;;;;-4.19;80.75;101652.36;106127;1256;124201;-81
2023/12/05 00:25:15;;;;;;;;;;;;;;;-4.14;80.72;101648.61;106886;1254;61427;-82
2023/12/05 00:27:42;;;;;;;;;;;;;;;-4.12;80.55;101646.36;106172;1254;73333;-83
2023/12/05 00:30:09;;;;;;;;;;;;;;;-4.11;80.63;101648.69;106741;1254;124704;-83
2023/12/05 00:32:35;;;;;;;;;;;;;;;-4.09;80.56;101644.98;106944;1254;71390;-84
2023/12/05 00:35:03;;;;;;;;;;;;;;;-4.14;80.43;101646.70;106855;1254;124461;-83
2023/12/05 00:37:30;;;;;;;;;;;;;;;-4.13;80.60;101649.68;106947;1258;61386;-83
2023/12/05 00:39:56;;;;;;;;;;;;;;;-4.12;80.64;101645.03;106968;1256;74678;-83
2023/12/05 00:42:23;;;;;;;;;;;;;;;-4.09;80.65;101647.72;106989;1254;124279;-83
2023/12/05 00:44:50;;;;;;;;;;;;;;;-4.03;80.88;101645.02;106670;1256;73181;-83
2023/12/05 00:47:16;;;;;;;;;;;;;;;-4.00;80.79;101648.85;106796;1258;124433;-83
2023/12/05 00:49:43;;;;;;;;;;;;;;;-3.99;80.96;101644.05;106849;1254;61345;-83
2023/12/05 00:52:10;;;;;;;;;;;;;;;-3.94;81.03;101646.09;106742;1254;74676;-83
2023/12/05 00:54:36;;;;;;;;;;;;;;;-3.92;80.96;101650.59;106686;1259;124299;-83
2023/12/05 00:57:03;;;;;;;;;;;;;;;-3.89;81.05;101648.09;106974;1254;72772;-82
2023/12/05 00:59:30;;;;;;;;;;;;;;;-3.86;81.14;101650.23;106953;1255;124257;-82
2023/12/05 01:01:56;;;;;;;;;;;;;;;-3.83;81.18;101656.02;108122;1254;59902;-82
2023/12/05 01:04:23;;;;;;;;;;;;;;;-3.82;81.16;101658.70;107105;1254;73176;-82
2023/12/05 01:06:49;;;;;;;;;;;;;;;-3.80;81.14;101656.17;106596;1256;124907;-82
2023/12/05 01:09:16;;;;;;;;;;;;;;;-3.78;81.13;101658.63;106180;1257;72364;-84
2023/12/05 01:11:43;;;;;;;;;;;;;;;-3.75;81.18;101662.51;106144;1254;124225;-84
2023/12/05 01:14:09;;;;;;;;;;;;;;;-3.72;81.18;101656.80;106907;1254;61290;-83
2023/12/05 01:16:40;;;;;;;;;;;;;;;-3.74;81.11;101651.56;106759;1254;75935;-84
2023/12/05 01:19:07;;;;;;;;;;;;;;;-3.74;81.24;101653.99;106858;1254;124552;-84
2023/12/05 01:21:34;;;;;;;;;;;;;;;-3.71;81.32;101653.44;106887;1254;71882;-84
2023/12/05 01:24:00;;;;;;;;;;;;;;;-3.68;81.32;101658.14;106692;1254;123646;-84
2023/12/05 01:26:27;;;;;;;;;;;;;;;-3.64;81.36;101654.23;106932;1258;61229;-83
2023/12/05 01:28:54;;;;;;;;;;;;;;;-3.63;81.26;101652.41;106700;1256;124920;-83
2023/12/05 01:31:21;;;;;;;;;;;;;;;-3.67;81.18;101651.36;106971;1254;66263;-83
2023/12/05 01:33:48;;;;;;;;;;;;;;;-3.65;81.52;101654.48;106873;1257;72558;-83
2023/12/05 01:36:14;;;;;;;;;;;;;;;-3.62;81.42;101652.08;106815;1254;124715;-83
2023/12/05 01:38:41;;;;;;;;;;;;;;;-3.57;81.53;101652.36;106863;1254;61181;-82
2023/12/05 01:41:08;;;;;;;;;;;;;;;-3.52;81.54;101651.47;106800;1254;125461;-83
2023/12/05 01:43:34;;;;;;;;;;;;;;;-3.48;81.52;101644.44;106791;1258;66260;-83
2023/12/05 01:46:01;;;;;;;;;;;;;;;-3.45;81.57;101639.58;106932;1254;72660;-83
2023/12/05 01:48:28;;;;;;;;;;;;;;;-3.40;81.63;101639.35;106040;1254;125948;-77
2023/12/05 01:50:55;;;;;;;;;;;;;;;-3.38;81.60;101638.27;106155;1256;59564;-78
2023/12/05 01:53:21;;;;;;;;;;;;;;;-3.35;81.67;101640.69;106049;1255;124985;-78
2023/12/05 01:55:48;;;;;;;;;;;;;;;-3.31;81.66;101642.77;105925;1255;66976;-78
2023/12/05 01:58:15;;;;;;;;;;;;;;;-3.27;81.68;101641.60;106145;1254;71127;-78
2023/12/05 02:00:42;;;;;;;;;;;;;;;-3.22;81.81;101639.02;106823;1255;124593;-79
2023/12/05 02:03:09;;;;;;;;;;;;;;;-3.18;81.70;101646.50;106641;1254;61229;-78
2023/12/05 02:05:36;;;;;;;;;;;;;;;-3.13;81.77;101647.73;106623;1255;125437;-79
2023/12/05 02:08:02;;;;;;;;;;;;;;;-3.07;81.82;101644.35;106676;1254;65036;-77
2023/12/05 02:10:29;;;;;;;;;;;;;;;-3.01;81.75;101637.20;106244;1259;73288;-76
2023/12/05 02:12:57;;;;;;;;;;;;;;;-2.98;81.74;101633.71;105965;1260;124577;-78
2023/12/05 02:15:23;;;;;;;;;;;;;;;-2.96;81.66;101630.32;106030;1254;61243;-78
2023/12/05 02:18:00;;;;;;;;;;;;;;;-2.91;81.69;101625.25;106164;1255;124798;-78
2023/12/05 02:20:36;;;;;;;;;;;;;;;-2.88;81.65;101626.05;105999;1254;65090;-79
2023/12/05 02:23:21;;;;;;;;;;;;;;;-2.84;81.69;101625.38;106730;1258;124917;-78
2023/12/05 02:25:57;;;;;;;;;;;;;;;-2.77;81.75;101622.59;106833;1254;61275;-78
2023/12/05 02:28:24;;;;;;;;;;;;;;;-2.72;81.78;101623.55;106693;1254;61271;-78
2023/12/05 02:30:51;;;;;;;;;;;;;;;-2.71;81.55;101626.24;106638;1254;123635;-79
2023/12/05 02:33:18;;;;;;;;;;;;;;;-2.73;81.45;101624.02;106687;1256;65089;-79
2023/12/05 02:35:45;;;;;;;;;;;;;;;-2.76;81.36;101619.73;106634;1258;124803;-78
2023/12/05 02:38:21;;;;;;;;;;;;;;;-2.79;81.32;101618.67;106708;1256;61357;-78
2023/12/05 02:41:00;;;;;;;;;;;;;;;-2.83;81.09;101620.36;106717;1258;123931;-78
2023/12/05 02:43:31;;;;;;;;;;;;;;;-2.86;81.29;101616.27;106776;1254;74378;-79
2023/12/05 02:45:57;;;;;;;;;;;;;;;-2.85;81.28;101619.45;106760;1258;66316;-79
2023/12/05 02:48:24;;;;;;;;;;;;;;;-2.86;81.20;101617.44;106551;1254;124133;-77
2023/12/05 02:50:51;;;;;;;;;;;;;;;-2.87;81.33;101615.80;105993;1254;61173;-80
2023/12/05 02:53:18;;;;;;;;;;;;;;;-2.88;81.15;101614.65;106705;1254;125014;-79
2023/12/05 02:55:46;;;;;;;;;;;;;;;-2.89;81.26;101616.46;106724;1254;73213;-80
2023/12/05 02:58:13;;;;;;;;;;;;;;;-2.90;81.34;101616.94;106752;1254;65021;-80
2023/12/05 03:00:41;;;;;;;;;;;;;;;-2.87;81.32;101616.98;106545;1254;124035;-79
2023/12/05 03:03:08;;;;;;;;;;;;;;;-2.89;81.22;101621.15;106726;1256;61536;-79
2023/12/05 03:05:35;;;;;;;;;;;;;;;-2.92;81.25;101623.02;106690;1256;124698;-79
2023/12/05 03:08:01;;;;;;;;;;;;;;;-2.94;81.31;101622.27;106825;1254;74608;-79
2023/12/05 03:10:28;;;;;;;;;;;;;;;-2.95;81.41;101619.20;106817;1258;64087;-79
2023/12/05 03:12:55;;;;;;;;;;;;;;;-3.02;81.11;101618.23;106694;1254;124526;-79
2023/12/05 03:15:21;;;;;;;;;;;;;;;-3.10;81.03;101615.75;106840;1254;61271;-80
2023/12/05 03:17:48;;;;;;;;;;;;;;;-3.18;80.96;101618.61;106687;1258;124188;-80
2023/12/05 03:20:15;;;;;;;;;;;;;;;-3.26;80.90;101618.36;106676;1254;74356;-80
2023/12/05 03:22:41;;;;;;;;;;;;;;;-3.32;80.93;101619.03;106679;1256;65868;-80
2023/12/05 03:25:08;;;;;;;;;;;;;;;-3.37;80.98;101616.86;106959;1254;71885;-80
2023/12/05 03:27:35;;;;;;;;;;;;;;;-3.40;81.05;101619.45;106981;1254;59356;-80
2023/12/05 03:30:03;;;;;;;;;;;;;;;-3.45;81.03;101613.29;106673;1255;124886;-80
2023/12/05 03:32:29;;;;;;;;;;;;;;;-3.45;81.14;101609.08;106649;1256;73366;-80
2023/12/05 03:34:56;;;;;;;;;;;;;;;-3.40;81.37;101613.77;106580;1254;124962;-79
2023/12/05 03:37:23;;;;;;;;;;;;;;;-3.40;81.34;101612.42;107011;1253;71336;-79
2023/12/05 03:39:50;;;;;;;;;;;;;;;-3.43;81.20;101609.95;106804;1256;60269;-79
2023/12/05 03:42:16;;;;;;;;;;;;;;;-3.44;81.30;101612.87;106693;1254;124919;-79
2023/12/05 03:44:43;;;;;;;;;;;;;;;-3.42;81.38;101611.55;106688;1256;74656;-79
2023/12/05 03:47:10;;;;;;;;;;;;;;;-3.38;81.46;101612.80;106752;1256;125639;-80
2023/12/05 03:49:37;;;;;;;;;;;;;;;-3.36;81.29;101613.13;106705;1254;72731;-80
2023/12/05 03:52:04;;;;;;;;;;;;;;;-3.43;80.97;101611.28;106660;1254;61327;-80
2023/12/05 03:54:31;;;;;;;;;;;;;;;-3.43;81.10;101608.69;106696;1254;124849;-79
2023/12/05 03:56:57;;;;;;;;;;;;;;;-3.41;81.04;101610.77;106689;1256;73365;-79
2023/12/05 03:59:24;;;;;;;;;;;;;;;-3.39;81.16;101614.27;106595;1254;124850;-80
2023/12/05 04:01:51;;;;;;;;;;;;;;;-3.34;81.12;101613.85;106761;1260;72737;-80
2023/12/05 04:04:18;;;;;;;;;;;;;;;-3.33;81.12;101612.60;106709;1256;61237;-80
2023/12/05 04:06:44;;;;;;;;;;;;;;;-3.33;81.15;101614.84;106674;1254;124616;-80
2023/12/05 04:09:11;;;;;;;;;;;;;;;-3.32;81.09;101613.38;106760;1254;74651;-80
2023/12/05 04:11:38;;;;;;;;;;;;;;;-3.36;81.03;101613.14;106694;1254;125567;-79
2023/12/05 04:14:05;;;;;;;;;;;;;;;-3.38;80.98;101611.56;106854;1258;71380;-79
2023/12/05 04:16:32;;;;;;;;;;;;;;;-3.37;81.02;101614.80;106896;1254;61266;-79
2023/12/05 04:18:59;;;;;;;;;;;;;;;-3.37;80.89;101620.83;106689;1258;124495;-80
2023/12/05 04:21:26;;;;;;;;;;;;;;;-3.36;81.00;101618.52;106587;1254;74642;-79
2023/12/05 04:23:52;;;;;;;;;;;;;;;-3.33;81.04;101618.27;106558;1255;124709;-79
2023/12/05 04:26:20;;;;;;;;;;;;;;;-3.31;81.03;101617.08;106641;1255;72714;-79
2023/12/05 04:28:46;;;;;;;;;;;;;;;-3.28;81.01;101617.67;106611;1255;125063;-79
2023/12/05 04:31:13;;;;;;;;;;;;;;;-3.24;80.99;101617.69;106876;1253;61320;-79
2023/12/05 04:33:40;;;;;;;;;;;;;;;-3.22;80.99;101616.19;107092;1253;72196;-80
2023/12/05 04:36:07;;;;;;;;;;;;;;;-3.24;80.85;101614.08;106748;1256;124419;-80
2023/12/05 04:38:35;;;;;;;;;;;;;;;-3.25;80.78;101619.81;106680;1254;72483;-80
2023/12/05 04:41:02;;;;;;;;;;;;;;;-3.32;80.61;101620.95;106459;1256;124192;-80
2023/12/05 04:43:29;;;;;;;;;;;;;;;-3.36;80.67;101619.70;106768;1254;61229;-80
2023/12/05 04:45:55;;;;;;;;;;;;;;;-3.36;80.64;101617.31;106683;1256;74701;-80
2023/12/05 04:48:22;;;;;;;;;;;;;;;-3.39;80.64;101617.33;106680;1258;124102;-81
2023/12/05 04:50:49;;;;;;;;;;;;;;;-3.39;80.70;101620.39;106832;1255;73210;-83
2023/12/05 04:53:16;;;;;;;;;;;;;;;-3.39;80.92;101623.35;106699;1256;124225;-81
2023/12/05 04:55:43;;;;;;;;;;;;;;;-3.41;80.86;101623.45;106942;1254;61283;-80
2023/12/05 04:58:09;;;;;;;;;;;;;;;-3.43;80.73;101624.33;106793;1260;74456;-80
2023/12/05 05:00:36;;;;;;;;;;;;;;;-3.46;80.62;101623.52;106868;1254;124625;-81
2023/12/05 05:03:03;;;;;;;;;;;;;;;-3.50;80.72;101625.36;106788;1254;72706;-82
2023/12/05 05:05:31;;;;;;;;;;;;;;;-3.60;80.40;101621.39;106772;1256;124267;-86
2023/12/05 05:07:58;;;;;;;;;;;;;;;-3.62;80.63;101625.61;106820;1254;61136;-82
2023/12/05 05:10:24;;;;;;;;;;;;;;;-3.63;80.68;101629.96;106807;1256;74407;-80
2023/12/05 05:12:51;;;;;;;;;;;;;;;-3.64;80.78;101629.86;106673;1254;124267;-80
2023/12/05 05:15:18;;;;;;;;;;;;;;;-3.66;80.70;101631.09;106803;1254;71456;-81
2023/12/05 05:17:44;;;;;;;;;;;;;;;-3.66;80.80;101632.27;106592;1258;124068;-80
2023/12/05 05:20:12;;;;;;;;;;;;;;;-3.67;80.90;101632.54;106770;1254;60149;-80
2023/12/05 05:22:40;;;;;;;;;;;;;;;-3.69;80.79;101630.77;106666;1260;75835;-79
2023/12/05 05:25:06;;;;;;;;;;;;;;;-3.74;80.65;101630.86;106540;1256;125952;-83
2023/12/05 05:27:33;;;;;;;;;;;;;;;-3.83;80.51;101618.84;106752;1254;72366;-80
2023/12/05 05:30:00;;;;;;;;;;;;;;;-3.85;80.70;101616.08;106758;1255;125046;-85
2023/12/05 05:32:31;;;;;;;;;;;;;;;-3.87;80.63;101620.48;106652;1256;61222;-82
2023/12/05 05:34:58;;;;;;;;;;;;;;;-3.87;80.71;101621.55;106612;1254;125957;-82
2023/12/05 05:37:25;;;;;;;;;;;;;;;-3.85;80.87;101618.41;106717;1256;66278;-83
2023/12/05 05:39:53;;;;;;;;;;;;;;;-3.82;80.89;101616.51;106738;1254;72641;-83
2023/12/05 05:42:20;;;;;;;;;;;;;;;-3.81;80.88;101615.08;106706;1258;124785;-78
2023/12/05 05:44:47;;;;;;;;;;;;;;;-3.80;80.86;101619.92;106551;1254;61293;-83
2023/12/05 05:47:14;;;;;;;;;;;;;;;-3.80;80.83;101618.77;106714;1255;124776;-83
2023/12/05 05:49:41;;;;;;;;;;;;;;;-3.80;80.79;101621.02;106790;1254;65201;-81
2023/12/05 05:52:08;;;;;;;;;;;;;;;-3.79;80.86;101621.13;106707;1254;72662;-84
2023/12/05 05:54:35;;;;;;;;;;;;;;;-3.78;80.77;101621.88;106779;1255;124704;-84
2023/12/05 05:57:02;;;;;;;;;;;;;;;-3.77;80.78;101619.73;106755;1260;61320;-81
2023/12/05 05:59:28;;;;;;;;;;;;;;;-3.76;80.64;101620.21;106973;1255;125013;-83
2023/12/05 06:01:55;;;;;;;;;;;;;;;-3.79;80.60;101618.03;106724;1255;66292;-80
2023/12/05 06:04:22;;;;;;;;;;;;;;;-3.79;80.65;101614.95;106861;1254;71164;-80
2023/12/05 06:06:49;;;;;;;;;;;;;;;-3.76;80.83;101620.70;106689;1253;125260;-80
2023/12/05 06:09:15;;;;;;;;;;;;;;;-3.74;80.84;101620.39;107088;1259;61257;-86
2023/12/05 06:11:42;;;;;;;;;;;;;;;-3.74;80.76;101625.16;107142;1254;124599;-85
2023/12/05 06:14:09;;;;;;;;;;;;;;;-3.75;80.69;101620.27;107117;1256;65540;-86
2023/12/05 06:16:35;;;;;;;;;;;;;;;-3.76;80.76;101622.91;106972;1261;71355;-86
2023/12/05 06:19:03;;;;;;;;;;;;;;;-3.77;80.72;101623.15;107210;1256;124371;-86
2023/12/05 06:21:30;;;;;;;;;;;;;;;-3.75;80.72;101627.02;107178;1255;61238;-85
2023/12/05 06:23:57;;;;;;;;;;;;;;;-3.76;80.52;101628.96;106908;1255;125027;-86
2023/12/05 06:26:23;;;;;;;;;;;;;;;-3.80;80.22;101631.48;106743;1260;66252;-85
2023/12/05 06:28:50;;;;;;;;;;;;;;;-3.85;80.14;101631.31;106635;1258;125316;-85
2023/12/05 06:31:17;;;;;;;;;;;;;;;-3.86;80.22;101629.53;106787;1256;60105;-86
2023/12/05 06:33:44;;;;;;;;;;;;;;;-3.85;80.29;101631.48;106889;1256;61151;-86
2023/12/05 06:36:12;;;;;;;;;;;;;;;-3.87;80.42;101633.52;106809;1256;124818;-87
2023/12/05 06:38:38;;;;;;;;;;;;;;;-3.93;80.31;101635.86;106967;1259;66298;-86
2023/12/05 06:41:05;;;;;;;;;;;;;;;-3.96;80.39;101639.50;106745;1258;124140;-86
2023/12/05 06:43:32;;;;;;;;;;;;;;;-4.00;80.35;101640.63;106859;1254;61348;-86
2023/12/05 06:45:59;;;;;;;;;;;;;;;-4.04;80.23;101643.69;107031;1258;61177;-87
2023/12/05 06:48:25;;;;;;;;;;;;;;;-4.09;80.20;101641.21;106833;1258;123988;-85
2023/12/05 06:50:52;;;;;;;;;;;;;;;-4.15;80.22;101638.59;107129;1255;66271;-86
2023/12/05 06:53:19;;;;;;;;;;;;;;;-4.16;80.11;101638.63;106844;1254;249162;-86
2023/12/05 06:55:48;;;;;;;;;;;;;;;-4.17;80.23;101637.14;107215;1259;61357;-86
2023/12/05 06:58:14;;;;;;;;;;;;;;;-4.16;80.28;101634.98;107011;1254;61325;-86
2023/12/05 07:00:42;;;;;;;;;;;;;;;-4.12;80.44;101639.70;106772;1255;124420;-86
2023/12/05 07:03:08;;;;;;;;;;;;;;;-4.09;80.45;101637.04;106920;1260;66313;-87
2023/12/05 07:05:35;;;;;;;;;;;;;;;-4.10;80.37;101633.90;106724;1257;124093;-88
2023/12/05 07:08:03;;;;;;;;;;;;;;;-4.16;80.14;101631.71;106669;1256;61269;-86
2023/12/05 07:10:31;;;;;;;;;;;;;;;-4.22;80.07;101633.27;106752;1258;61274;-86
2023/12/05 07:12:58;;;;;;;;;;;;;;;-4.26;80.15;101633.84;106732;1256;123103;-86
2023/12/05 07:15:25;;;;;;;;;;;;;;;-4.28;80.11;101633.14;106730;1261;64959;-86
2023/12/05 07:17:51;;;;;;;;;;;;;;;-4.27;80.13;101633.72;106796;1256;124006;-86
2023/12/05 07:20:18;;;;;;;;;;;;;;;-4.25;80.17;101634.24;106812;1256;61060;-86
2023/12/05 07:22:45;;;;;;;;;;;;;;;-4.24;80.11;101635.54;106737;1256;124154;-88
2023/12/05 07:25:11;;;;;;;;;;;;;;;-4.25;80.08;101639.41;106764;1255;74645;-86
2023/12/05 07:27:39;;;;;;;;;;;;;;;-4.27;80.12;101636.69;106746;1260;66259;-87
2023/12/05 07:30:07;;;;;;;;;;;;;;;-4.27;80.13;101636.80;106429;1260;124347;-87
2023/12/05 07:32:34;;;;;;;;;;;;;;;-4.27;80.13;101636.14;106821;1255;61350;-85
2023/12/05 07:35:01;;;;;;;;;;;;;;;-4.25;80.24;101634.94;106548;1255;123788;-85
2023/12/05 07:37:28;;;;;;;;;;;;;;;-4.23;80.20;101630.73;106796;1258;73416;-83
2023/12/05 07:39:55;;;;;;;;;;;;;;;-4.20;80.12;101628.73;106833;1258;64341;-83
2023/12/05 07:42:22;;;;;;;;;;;;;;;-4.19;80.23;101628.22;106632;1256;124798;-83
2023/12/05 07:44:48;;;;;;;;;;;;;;;-4.12;80.41;101629.96;106708;1258;61149;-85
2023/12/05 07:47:15;;;;;;;;;;;;;;;-4.05;80.30;101632.61;106553;1255;124761;-87
2023/12/05 07:49:42;;;;;;;;;;;;;;;-4.01;80.18;101629.10;106833;1254;72744;-88
2023/12/05 07:52:09;;;;;;;;;;;;;;;-3.98;80.07;101628.88;106809;1253;66507;-86
2023/12/05 07:54:36;;;;;;;;;;;;;;;-3.96;79.83;101622.58;106712;1258;125957;-86
2023/12/05 07:57:03;;;;;;;;;;;;;;;-3.95;79.83;101621.44;106903;1254;61234;-85
2023/12/05 07:59:30;;;;;;;;;;;;;;;-3.93;79.83;101625.61;106595;1254;124759;-86
2023/12/05 08:01:56;;;;;;;;;;;;;;;-3.91;79.69;101626.80;106692;1256;74412;-84
2023/12/05 08:04:23;;;;;;;;;;;;;;;-3.86;79.89;101623.50;106722;1254;65053;-83
2023/12/05 08:06:50;;;;;;;;;;;;;;;-3.83;79.59;101624.62;106639;1258;125069;-84
2023/12/05 08:09:16;;;;;;;;;;;;;;;-3.79;79.54;101624.21;106746;1254;59245;-84
2023/12/05 08:11:43;;;;;;;;;;;;;;;-3.77;79.52;101622.55;106649;1255;124698;-84
2023/12/05 08:14:10;;;;;;;;;;;;;;;-3.77;79.39;101625.76;106821;1259;74754;-84
2023/12/05 08:16:38;;;;;;;;;;;;;;;-3.80;79.24;101629.25;106843;1254;66221;-87
2023/12/05 08:19:05;;;;;;;;;;;;;;;-3.81;79.18;101633.94;106768;1257;124639;-88
2023/12/05 08:21:31;;;;;;;;;;;;;;;-3.81;79.23;101632.86;106681;1257;61428;-87
2023/12/05 08:23:58;;;;;;;;;;;;;;;-3.77;79.28;101634.16;106663;1254;124707;-85
2023/12/05 08:26:25;;;;;;;;;;;;;;;-3.72;79.29;101635.81;106829;1257;73478;-85
2023/12/05 08:28:52;;;;;;;;;;;;;;;-3.69;79.23;101636.27;106772;1254;124351;-85
2023/12/05 08:31:24;;;;;;;;;;;;;;;-3.66;79.11;101634.84;106782;1255;72643;-86
2023/12/05 08:33:51;;;;;;;;;;;;;;;-3.62;79.19;101639.54;106729;1255;61309;-86
2023/12/05 08:36:18;;;;;;;;;;;;;;;-3.57;79.09;101639.13;106650;1259;124027;-86
2023/12/05 08:38:44;;;;;;;;;;;;;;;-3.54;79.00;101633.64;106788;1254;74430;-88
2023/12/05 08:41:20;;;;;;;;;;;;;;;-3.53;78.76;101634.55;106879;1254;124031;-85
2023/12/05 08:43:47;;;;;;;;;;;;;;;-3.57;78.56;101635.86;106812;1254;72426;-86
2023/12/05 08:46:14;;;;;;;;;;;;;;;-3.64;78.49;101636.70;106840;1257;59916;-86
2023/12/05 08:48:41;;;;;;;;;;;;;;;-3.71;78.48;101638.73;106615;1254;124178;-87
2023/12/05 08:51:07;;;;;;;;;;;;;;;-3.75;78.39;101640.67;106799;1256;73045;-87
2023/12/05 08:53:34;;;;;;;;;;;;;;;-3.76;78.45;101641.58;106681;1257;124313;-87
2023/12/05 08:56:04;;;;;;;;;;;;;;;-3.81;78.34;101639.26;106686;1256;72123;-87
2023/12/05 08:58:30;;;;;;;;;;;;;;;-3.83;78.32;101647.32;106793;1254;61249;-87
2023/12/05 09:00:57;;;;;;;;;;;;;;;-3.86;78.33;101643.95;106708;1254;124101;-86
2023/12/05 09:03:24;;;;;;;;;;;;;;;-3.86;78.31;101650.23;106642;1256;74572;-87
2023/12/05 09:05:51;;;;;;;;;;;;;;;-3.99;77.89;101659.46;106692;1256;124137;-87
2023/12/05 09:08:17;;;;;;;;;;;;;;;-4.14;77.82;101662.34;106766;1254;72834;-87
2023/12/05 09:10:44;;;;;;;;;;;;;;;-4.19;77.93;101665.87;106660;1256;124175;-86
2023/12/05 09:13:11;;;;;;;;;;;;;;;-4.18;78.05;101662.36;106827;1258;61319;-86
2023/12/05 09:15:38;;;;;;;;;;;;;;;-4.13;78.15;101666.48;106843;1258;74683;-86
2023/12/05 09:18:05;;;;;;;;;;;;;;;-4.13;78.01;101664.77;106841;1256;124883;-86
2023/12/05 09:20:32;;;;;;;;;;;;;;;-4.19;77.90;101667.45;106678;1260;72670;-86
2023/12/05 09:22:58;;;;;;;;;;;;;;;-4.23;77.75;101662.63;106696;1254;125804;-86
2023/12/05 09:25:25;;;;;;;;;;;;;;;-4.27;77.61;101662.36;106761;1254;61234;-86
2023/12/05 09:27:52;;;;;;;;;;;;;;;-4.32;77.75;101662.92;106893;1256;73259;-86
2023/12/05 09:30:18;;;;;;;;;;;;;;;-4.37;77.66;101656.48;106855;1256;124669;-87
2023/12/05 09:32:45;;;;;;;;;;;;;;;-4.37;77.74;101657.95;106633;1256;71221;-87
2023/12/05 09:35:12;;;;;;;;;;;;;;;-4.33;77.80;101654.04;106700;1254;124708;-85
2023/12/05 09:37:38;;;;;;;;;;;;;;;-4.36;77.72;101650.21;106951;1256;61144;-87
2023/12/05 09:40:05;;;;;;;;;;;;;;;-4.38;77.70;101642.80;106932;1259;72682;-87
2023/12/05 09:42:32;;;;;;;;;;;;;;;-4.34;77.87;101632.91;106689;1256;124798;-86
2023/12/05 09:44:59;;;;;;;;;;;;;;;-4.28;78.02;101622.20;106767;1260;73893;-87
2023/12/05 09:47:26;;;;;;;;;;;;;;;-4.22;78.17;101620.84;106619;1257;124854;-86
2023/12/05 09:49:53;;;;;;;;;;;;;;;-4.17;78.27;101623.73;106679;1259;61157;-85
2023/12/05 09:52:20;;;;;;;;;;;;;;;-4.17;78.05;101626.14;106801;1261;75048;-86
2023/12/05 09:54:47;;;;;;;;;;;;;;;-4.15;78.21;101626.52;106773;1255;124675;-86
2023/12/05 09:57:14;;;;;;;;;;;;;;;-4.07;78.45;101621.34;106869;1258;71226;-87
2023/12/05 09:59:41;;;;;;;;;;;;;;;-3.97;78.35;101617.95;106758;1259;124584;-87
2023/12/05 10:02:08;;;;;;;;;;;;;;;-3.89;78.43;101615.64;106627;1256;61320;-87
2023/12/05 10:04:44;;;;;;;;;;;;;;;-3.81;78.51;101613.02;106614;1261;73837;-86
2023/12/05 10:07:14;;;;;;;;;;;;;;;-3.71;78.62;101615.80;106730;1260;63829;-86
2023/12/05 10:09:41;;;;;;;;;;;;;;;-3.64;78.56;101611.69;106706;1254;72613;-86
2023/12/05 10:12:08;;;;;;;;;;;;;;;-3.59;78.53;101614.08;106648;1260;123943;-86
2023/12/05 10:14:35;;;;;;;;;;;;;;;-3.51;78.71;101613.11;106736;1255;61242;-86
2023/12/05 10:17:02;;;;;;;;;;;;;;;-3.47;78.55;101611.27;106555;1254;124071;-86
2023/12/05 10:19:30;;;;;;;;;;;;;;;-3.47;78.50;101609.73;106758;1256;65159;-86
2023/12/05 10:21:57;;;;;;;;;;;;;;;-3.48;78.38;101608.98;106765;1260;72658;-86
2023/12/05 10:24:24;;;;;;;;;;;;;;;-3.48;78.43;101607.55;106663;1254;123924;-86
2023/12/05 10:26:51;;;;;;;;;;;;;;;-3.49;78.39;101607.17;106660;1255;61269;-86
2023/12/05 10:29:19;;;;;;;;;;;;;;;-3.48;78.36;101604.07;106766;1254;124409;-87
2023/12/05 10:31:46;;;;;;;;;;;;;;;-3.49;78.34;101602.02;106818;1258;66286;-87
2023/12/05 10:34:12;;;;;;;;;;;;;;;-3.45;78.41;101601.45;106787;1258;72677;-84
2023/12/05 10:36:39;;;;;;;;;;;;;;;-3.40;78.59;101600.97;106827;1255;125065;-84
2023/12/05 10:39:06;;;;;;;;;;;;;;;-3.32;78.72;101600.97;106722;1254;61399;-84
2023/12/05 10:41:33;;;;;;;;;;;;;;;-3.25;78.63;101596.33;106733;1260;124168;-84
2023/12/05 10:44:02;;;;;;;;;;;;;;;-3.18;78.70;101593.71;106691;1256;65660;-87
2023/12/05 10:46:29;;;;;;;;;;;;;;;-3.13;78.59;101586.93;106807;1269;72724;-87
2023/12/05 10:48:56;;;;;;;;;;;;;;;-3.10;78.66;101588.13;106712;1258;124771;-86
2023/12/05 10:51:29;;;;;;;;;;;;;;;-3.05;78.70;101592.34;106619;1256;61422;-86
2023/12/05 10:53:55;;;;;;;;;;;;;;;-3.03;78.46;101584.96;106490;1256;124347;-87
2023/12/05 10:56:23;;;;;;;;;;;;;;;-3.02;78.47;101583.13;106697;1256;66048;-87
2023/12/05 10:58:50;;;;;;;;;;;;;;;-3.01;78.60;101585.14;106668;1254;124247;-87
2023/12/05 11:01:17;;;;;;;;;;;;;;;-2.98;78.74;101579.63;106785;1254;60736;-87
2023/12/05 11:03:44;;;;;;;;;;;;;;;-2.95;78.59;101579.85;106783;1256;61251;-86
2023/12/05 11:06:11;;;;;;;;;;;;;;;-2.97;78.46;101580.89;106558;1256;125139;-86
2023/12/05 11:08:37;;;;;;;;;;;;;;;-3.01;78.37;101576.80;106889;1259;65018;-85
2023/12/05 11:11:04;;;;;;;;;;;;;;;-3.04;78.32;101579.61;106666;1254;125039;-87
2023/12/05 11:13:32;;;;;;;;;;;;;;;-3.05;78.24;101577.10;106703;1256;61310;-86
2023/12/05 11:16:00;;;;;;;;;;;;;;;-3.07;78.07;101575.50;106560;1260;61188;-87
2023/12/05 11:18:42;;;;;;;;;;;;;;;-3.11;77.93;101578.70;106765;1267;125404;-85
2023/12/05 11:21:21;;;;;;;;;;;;;;;-3.18;77.77;101581.02;106874;1258;66355;-84
2023/12/05 11:24:03;;;;;;;;;;;;;;;-3.23;77.84;101583.33;106759;1260;124750;-84
2023/12/05 11:26:39;;;;;;;;;;;;;;;-3.25;77.68;101582.09;106769;1257;59812;-84
2023/12/05 11:29:08;;;;;;;;;;;;;;;-3.29;77.58;101579.99;106539;1260;124783;-84
2023/12/05 11:31:40;;;;;;;;;;;;;;;-3.30;77.59;101575.73;106651;1260;74419;-85
2023/12/05 11:34:25;;;;;;;;;;;;;;;-3.30;77.59;101574.73;106825;1258;66237;-85
2023/12/05 11:37:04;;;;;;;;;;;;;;;-3.34;77.42;101572.65;106612;1261;124683;-85
2023/12/05 11:39:31;;;;;;;;;;;;;;;-3.36;77.49;101575.94;106654;1261;61290;-85
2023/12/05 11:42:08;;;;;;;;;;;;;;;-3.39;77.39;101576.34;106909;1255;125176;-84
2023/12/05 11:44:36;;;;;;;;;;;;;;;-3.41;77.32;101582.14;106848;1254;73124;-85
2023/12/05 11:47:06;;;;;;;;;;;;;;;-3.44;77.27;101580.52;106874;1259;125487;-84
2023/12/05 11:49:37;;;;;;;;;;;;;;;-3.48;77.16;101576.38;106677;1260;72762;-84
2023/12/05 11:52:09;;;;;;;;;;;;;;;-3.49;77.19;101574.22;106969;1254;61369;-84
2023/12/05 11:54:36;;;;;;;;;;;;;;;-3.50;76.98;101571.65;106960;1256;123971;-84
2023/12/05 11:57:10;;;;;;;;;;;;;;;-3.54;76.88;101572.67;106876;1260;73357;-84
2023/12/05 11:59:43;;;;;;;;;;;;;;;-3.56;76.93;101573.91;106720;1260;124078;-84
2023/12/05 12:02:13;;;;;;;;;;;;;;;-3.60;76.79;101578.12;106793;1257;72450;-84
2023/12/05 12:04:40;;;;;;;;;;;;;;;-3.61;76.89;101577.33;106721;1256;61350;-86
2023/12/05 12:07:07;;;;;;;;;;;;;;;-3.62;76.81;101573.13;106592;1256;123816;-85
2023/12/05 12:09:38;;;;;;;;;;;;;;;-3.62;76.87;101575.20;106978;1257;73871;-85
2023/12/05 12:12:05;;;;;;;;;;;;;;;-3.64;76.91;101577.39;106771;1259;124001;-84
2023/12/05 12:14:32;;;;;;;;;;;;;;;-3.66;76.76;101576.56;106846;1255;72609;-83
2023/12/05 12:17:04;;;;;;;;;;;;;;;-3.68;76.68;101573.88;106482;1259;124248;-84
2023/12/05 12:19:30;;;;;;;;;;;;;;;-3.71;76.85;101576.23;106668;1256;61255;-84
2023/12/05 12:21:57;;;;;;;;;;;;;;;-3.74;76.77;101573.38;106498;1254;73501;-82
2023/12/05 12:24:24;;;;;;;;;;;;;;;-3.78;76.78;101575.25;106685;1254;124236;-84